Alexander Springs, Pennsylvania
Current Conditions -  °F | °C
As of 9:53 AM on Saturday 20 Dec 2014 (Local Time) from KUNV Reporting Station
Overcast Overcast  
Wind Chill: 19°   Ceiling: 1700
Heat Index: 27°   Visibility: 10mi
Dew Point: 19°   Wind: 7mph
Humidity: 74%   Direction: 330°NNW
Pressure: 30.25"   Gusts: NA
Location:  40.5962°N, 77.7424°W
Report Text: KUNV 201453Z 33006KT 10SM OVC017 M03/M07 A3025
Loading
Personal Weather Stations






























Interactive Weather Map New forecast layout! Learn more

10-Day Weather Forecast

Advertisements
Track Severe Weather on mobile